Time;durP1;ratioP1;P1;durP2;ratioP2;P2;SDS_P1;SDS_P2;PMS_P1;PMS_P2;Temp;Humidity;BMP_temperature;BMP_pressure;BME280_temperature;BME280_humidity;BME280_pressure;Samples;Min_cycle;Max_cycle;Signal;HPM_P1;HPM_P2
2022/01/19 00:01:07;;;;;;;44.17;21.38;;;5.40;99.90;;;;;;4769487;30;20059;-81
2022/01/19 00:03:33;;;;;;;46.78;22.30;;;5.40;99.90;;;;;;4770733;30;20048;-81
2022/01/19 00:05:58;;;;;;;47.92;21.95;;;5.40;99.90;;;;;;4769609;30;20148;-81
2022/01/19 00:08:26;;;;;;;49.63;23.17;;;5.40;99.90;;;;;;4770084;30;20404;-81
2022/01/19 00:10:52;;;;;;;52.90;24.13;;;5.40;99.90;;;;;;4769324;30;20056;-81
2022/01/19 00:13:17;;;;;;;50.13;22.95;;;5.40;99.90;;;;;;4783604;30;20506;-81
2022/01/19 00:15:43;;;;;;;54.35;23.75;;;5.40;99.90;;;;;;4770512;30;20482;-81
2022/01/19 00:18:09;;;;;;;49.38;22.38;;;5.40;99.90;;;;;;4783735;30;20385;-81
2022/01/19 00:20:34;;;;;;;43.22;20.15;;;5.40;99.90;;;;;;4770279;30;20483;-81
2022/01/19 00:23:01;;;;;;;38.97;19.98;;;5.40;99.90;;;;;;4777811;30;20135;-81
2022/01/19 00:25:27;;;;;;;37.20;19.38;;;5.40;99.90;;;;;;4771473;30;20426;-81
2022/01/19 00:27:52;;;;;;;45.38;21.73;;;5.40;99.90;;;;;;4772969;30;20043;-81
2022/01/19 00:30:18;;;;;;;44.70;22.75;;;5.40;99.90;;;;;;4787629;29;20051;-81
2022/01/19 00:32:44;;;;;;;43.97;22.75;;;5.40;99.90;;;;;;4787817;29;20051;-81
2022/01/19 00:35:10;;;;;;;47.05;23.80;;;5.40;99.90;;;;;;4786351;30;20142;-82
2022/01/19 00:37:37;;;;;;;46.45;23.77;;;5.40;99.90;;;;;;4787799;29;20055;-81
2022/01/19 00:40:03;;;;;;;39.50;21.88;;;5.40;99.90;;;;;;4784079;30;20047;-81
2022/01/19 00:42:29;;;;;;;45.13;22.92;;;5.40;99.90;;;;;;4768606;30;20102;-81
2022/01/19 00:44:55;;;;;;;49.25;22.35;;;5.40;99.90;;;;;;4770078;30;20098;-81
2022/01/19 00:47:20;;;;;;;46.08;23.00;;;5.40;99.90;;;;;;4768428;30;20051;-81
2022/01/19 00:49:46;;;;;;;43.40;23.50;;;5.40;99.90;;;;;;4769780;30;20159;-81
2022/01/19 00:52:12;;;;;;;48.38;23.65;;;5.40;99.90;;;;;;4769100;30;20051;-82
2022/01/19 00:54:38;;;;;;;45.40;23.75;;;5.40;99.90;;;;;;4769731;30;20135;-81
2022/01/19 00:57:04;;;;;;;48.05;24.95;;;5.40;99.90;;;;;;4783170;30;20052;-81
2022/01/19 00:59:30;;;;;;;59.90;25.23;;;5.40;99.90;;;;;;4769283;30;20051;-81
2022/01/19 01:01:55;;;;;;;53.85;25.08;;;5.40;99.90;;;;;;4783395;30;20054;-81
2022/01/19 01:04:21;;;;;;;47.22;23.35;;;5.40;99.90;;;;;;4768514;30;20048;-82
2022/01/19 01:06:47;;;;;;;50.75;24.20;;;5.50;99.90;;;;;;4783396;30;20052;-81
2022/01/19 01:09:12;;;;;;;56.25;26.52;;;5.50;99.90;;;;;;4782888;30;20058;-82
2022/01/19 01:11:47;;;;;;;55.38;25.50;;;5.60;99.90;;;;;;4783251;30;20167;-81
2022/01/19 01:16:51;;;;;;;52.70;26.35;;;5.40;99.90;;;;;;4768468;30;20063;-81
2022/01/19 01:19:16;;;;;;;60.03;26.15;;;5.40;99.90;;;;;;4769143;30;20060;-81
2022/01/19 01:21:42;;;;;;;58.10;27.83;;;5.40;99.90;;;;;;4769434;30;20403;-81
2022/01/19 01:24:08;;;;;;;56.45;26.77;;;5.40;99.90;;;;;;4769682;30;20075;-81
2022/01/19 01:26:33;;;;;;;57.47;27.88;;;5.40;99.90;;;;;;4768838;30;20051;-81
2022/01/19 01:28:59;;;;;;;55.03;26.35;;;5.40;99.90;;;;;;4769525;30;20449;-81
2022/01/19 01:31:24;;;;;;;53.33;25.17;;;5.40;99.90;;;;;;4767853;30;20054;-81
2022/01/19 01:33:50;;;;;;;56.58;25.33;;;5.50;99.90;;;;;;4783130;30;20105;-81
2022/01/19 01:36:16;;;;;;;54.22;23.38;;;5.40;99.90;;;;;;4768892;30;20052;-82
2022/01/19 01:38:41;;;;;;;52.58;24.00;;;5.40;99.90;;;;;;4769592;30;20055;-81
2022/01/19 01:41:09;;;;;;;60.70;25.90;;;5.40;99.90;;;;;;4769289;30;20532;-81
2022/01/19 01:43:34;;;;;;;51.15;23.15;;;5.40;99.90;;;;;;4782361;30;20137;-81
2022/01/19 01:46:06;;;;;;;48.58;22.50;;;5.50;99.90;;;;;;4786000;30;20449;-81
2022/01/19 01:48:35;;;;;;;53.78;22.55;;;5.40;99.90;;;;;;4772594;30;20054;-81
2022/01/19 01:53:45;;;;;;;46.72;24.60;;;5.50;99.90;;;;;;4772906;30;20140;-81
2022/01/19 01:56:16;;;;;;;57.35;25.90;;;5.40;99.90;;;;;;4771892;30;20052;-81
2022/01/19 01:58:44;;;;;;;55.75;26.65;;;5.50;99.90;;;;;;4786592;30;20058;-81
2022/01/19 02:01:09;;;;;;;58.28;27.13;;;5.50;99.90;;;;;;4772657;30;20189;-81
2022/01/19 02:03:39;;;;;;;58.63;26.17;;;5.50;99.90;;;;;;4785752;30;20135;-81
2022/01/19 02:09:11;;;;;;;59.97;27.08;;;5.60;99.90;;;;;;4785310;30;20066;-81
2022/01/19 02:23:08;;;;;;;58.05;24.33;;;5.50;99.90;;;;;;4782962;30;20051;-81
2022/01/19 02:25:39;;;;;;;59.50;26.40;;;5.60;99.90;;;;;;4770576;30;20138;-81
2022/01/19 02:41:38;;;;;;;72.22;30.10;;;5.50;99.90;;;;;;4771633;30;20083;-81
2022/01/19 02:44:04;;;;;;;69.93;29.10;;;5.50;99.90;;;;;;4770799;30;20064;-81
2022/01/19 02:49:18;;;;;;;69.03;27.77;;;5.50;99.90;;;;;;4784995;30;20055;-81
2022/01/19 02:51:51;;;;;;;60.30;26.30;;;5.40;99.90;;;;;;4784264;29;20055;-81
2022/01/19 02:54:21;;;;;;;66.72;27.02;;;5.40;99.90;;;;;;4780485;30;20126;-81
2022/01/19 02:56:51;;;;;;;69.35;27.55;;;5.30;99.90;;;;;;4754540;30;20134;-81
2022/01/19 03:10:08;;;;;;;62.83;24.45;;;5.20;99.90;;;;;;4785118;29;20113;-81
2022/01/19 03:12:34;;;;;;;67.32;26.00;;;5.20;99.90;;;;;;4771080;30;20055;-82
2022/01/19 03:15:00;;;;;;;59.05;23.50;;;5.20;99.90;;;;;;4755393;30;20052;-81
2022/01/19 03:17:25;;;;;;;54.47;23.40;;;5.10;99.90;;;;;;4771328;30;20059;-82
2022/01/19 03:19:51;;;;;;;55.08;23.95;;;5.20;99.90;;;;;;4771097;30;20079;-81
2022/01/19 03:22:20;;;;;;;62.88;25.48;;;5.10;99.90;;;;;;4769854;30;20048;-81
2022/01/19 03:24:50;;;;;;;61.63;25.35;;;5.10;99.90;;;;;;4770988;30;20062;-82
2022/01/19 03:27:16;;;;;;;65.25;26.60;;;5.10;99.90;;;;;;4784038;30;20511;-81
2022/01/19 03:29:42;;;;;;;64.18;26.52;;;5.10;99.90;;;;;;4784552;30;20052;-81
2022/01/19 03:32:08;;;;;;;63.55;26.48;;;5.10;99.90;;;;;;4771087;30;20407;-81
2022/01/19 03:34:34;;;;;;;73.28;27.60;;;5.10;99.90;;;;;;4784465;30;20063;-81
2022/01/19 03:37:00;;;;;;;64.40;25.85;;;5.10;99.90;;;;;;4784889;30;20048;-81
2022/01/19 03:39:25;;;;;;;68.93;28.13;;;5.10;99.90;;;;;;4770850;30;20051;-81
2022/01/19 03:41:51;;;;;;;70.88;27.15;;;5.20;99.90;;;;;;4770695;30;20148;-81
2022/01/19 03:44:17;;;;;;;55.50;26.92;;;5.10;99.90;;;;;;4770689;30;20059;-81
2022/01/19 03:47:00;;;;;;;60.85;26.63;;;5.10;99.90;;;;;;4769505;30;20068;-81
2022/01/19 03:49:27;;;;;;;55.35;26.30;;;5.10;99.90;;;;;;4770061;30;20453;-81
2022/01/19 03:52:01;;;;;;;51.65;26.20;;;5.10;99.90;;;;;;4769046;30;20538;-81
2022/01/19 03:54:41;;;;;;;49.90;25.95;;;5.10;99.90;;;;;;4770970;30;20052;-81
2022/01/19 03:57:07;;;;;;;48.80;25.02;;;5.10;99.90;;;;;;4770809;30;20059;-81
2022/01/19 03:59:32;;;;;;;46.47;25.95;;;5.00;99.90;;;;;;4771018;30;20499;-81
2022/01/19 04:01:58;;;;;;;55.50;26.42;;;5.00;99.90;;;;;;4768982;30;20060;-81
2022/01/19 04:07:09;;;;;;;49.78;26.17;;;4.90;99.90;;;;;;4769954;30;20059;-81
2022/01/19 04:09:40;;;;;;;52.95;26.20;;;4.90;99.90;;;;;;4770439;30;20059;-82
2022/01/19 04:12:07;;;;;;;53.00;27.05;;;4.90;99.90;;;;;;4770447;30;20139;-81
2022/01/19 04:14:33;;;;;;;53.30;26.95;;;4.90;99.90;;;;;;4784256;30;20056;-81
2022/01/19 04:17:04;;;;;;;55.15;26.50;;;4.80;99.90;;;;;;4770015;30;20130;-81
2022/01/19 04:19:33;;;;;;;53.08;26.63;;;4.90;99.90;;;;;;4784309;30;20129;-81
2022/01/19 04:22:01;;;;;;;51.65;26.48;;;5.00;99.90;;;;;;4783230;30;20055;-81
2022/01/19 04:24:27;;;;;;;49.63;25.40;;;4.90;99.90;;;;;;4770070;30;20051;-81
2022/01/19 04:26:58;;;;;;;42.83;25.40;;;4.90;99.90;;;;;;4783587;30;20058;-81
2022/01/19 04:29:24;;;;;;;;;;;4.90;99.90;;;;;;4769789;30;20093;-81
2022/01/19 04:31:49;;;;;;;41.83;25.10;;;4.80;99.90;;;;;;4769620;30;19925;-81
2022/01/19 04:34:17;;;;;;;41.78;24.83;;;4.80;99.90;;;;;;4768894;30;20055;-81
2022/01/19 04:37:27;;;;;;;43.03;25.17;;;4.80;99.90;;;;;;4768811;30;20091;-82
2022/01/19 04:48:12;;;;;;;45.47;24.83;;;4.80;99.90;;;;;;4770033;30;20063;-81
2022/01/19 05:04:50;;;;;;;44.00;25.50;;;4.80;99.90;;;;;;4769256;30;20117;-81
2022/01/19 05:07:02;;;;;;;43.55;24.92;;;4.70;99.90;;;;;;4773548;29;20460;-81
2022/01/19 05:14:44;;;;;;;46.58;26.70;;;4.70;99.90;;;;;;4769536;30;20059;-81
2022/01/19 05:17:10;;;;;;;47.28;26.52;;;4.70;99.90;;;;;;4768642;30;20060;-81
2022/01/19 05:19:36;;;;;;;47.85;27.05;;;4.70;99.90;;;;;;4767882;30;20044;-81
2022/01/19 05:22:01;;;;;;;46.55;26.50;;;4.70;99.90;;;;;;4783282;29;20479;-81
2022/01/19 05:24:27;;;;;;;48.47;28.75;;;4.70;99.90;;;;;;4778587;29;20407;-81
2022/01/19 05:26:53;;;;;;;47.75;27.35;;;4.70;99.90;;;;;;4768891;30;20106;-82
2022/01/19 05:29:18;;;;;;;50.97;27.75;;;4.60;99.90;;;;;;4782659;30;20135;-81
2022/01/19 05:31:44;;;;;;;48.45;26.48;;;4.70;99.90;;;;;;4785966;30;20387;-81
2022/01/19 05:34:10;;;;;;;45.85;27.40;;;4.60;99.90;;;;;;4771046;30;20466;-81
2022/01/19 05:36:35;;;;;;;47.35;26.42;;;4.70;99.90;;;;;;4787083;29;20055;-81
2022/01/19 05:39:04;;;;;;;49.55;28.20;;;4.70;99.90;;;;;;4770563;30;20060;-86
2022/01/19 05:41:30;;;;;;;47.25;27.80;;;4.60;99.90;;;;;;4757035;30;20138;-84
2022/01/19 05:43:56;;;;;;;46.05;27.13;;;4.60;99.90;;;;;;4768540;30;20067;-84
2022/01/19 05:46:22;;;;;;;46.50;27.25;;;4.70;99.90;;;;;;4769376;30;20388;-84
2022/01/19 05:48:48;;;;;;;45.60;27.77;;;4.70;99.90;;;;;;4768992;30;20515;-85
2022/01/19 05:51:13;;;;;;;45.30;27.60;;;4.70;99.90;;;;;;4768466;30;20056;-87
2022/01/19 05:53:39;;;;;;;41.80;26.17;;;4.70;99.90;;;;;;4768761;30;20156;-86
2022/01/19 05:56:05;;;;;;;43.92;26.85;;;4.70;99.90;;;;;;4768201;30;20480;-83
2022/01/19 05:58:31;;;;;;;46.95;26.90;;;4.60;99.90;;;;;;4768263;30;20403;-82
2022/01/19 06:00:57;;;;;;;46.35;27.25;;;4.70;99.90;;;;;;4767731;30;20051;-82
2022/01/19 06:03:23;;;;;;;46.92;28.00;;;4.60;99.90;;;;;;4791579;29;20124;-81
2022/01/19 06:05:48;;;;;;;51.65;28.60;;;4.60;99.90;;;;;;4785699;30;20600;-82
2022/01/19 06:10:46;;;;;;;48.40;27.60;;;4.70;99.90;;;;;;4786783;30;20059;-82
2022/01/19 06:13:13;;;;;;;44.83;26.23;;;4.70;99.90;;;;;;4785309;30;20046;-83
2022/01/19 06:15:38;;;;;;;48.72;28.05;;;4.80;99.90;;;;;;4786760;29;20495;-85
2022/01/19 06:18:04;;;;;;;47.50;26.52;;;4.70;99.90;;;;;;4770654;30;20062;-84
2022/01/19 06:20:30;;;;;;;50.35;28.08;;;4.80;99.90;;;;;;4781513;30;20058;-83
2022/01/19 06:22:55;;;;;;;45.45;26.85;;;4.70;99.90;;;;;;4768641;30;20054;-84
2022/01/19 06:25:21;;;;;;;46.58;27.13;;;4.70;99.90;;;;;;4767926;30;20399;-82
2022/01/19 06:27:47;;;;;;;45.88;27.15;;;4.70;99.90;;;;;;4782396;30;20132;-84
2022/01/19 06:30:12;;;;;;;42.75;25.33;;;4.70;99.90;;;;;;4782367;30;20048;-82
2022/01/19 06:32:39;;;;;;;44.28;26.38;;;4.70;99.90;;;;;;4756078;30;20052;-82
2022/01/19 06:35:06;;;;;;;43.20;25.90;;;4.70;99.90;;;;;;4770405;30;20055;-84
2022/01/19 06:37:31;;;;;;;44.75;26.88;;;4.70;99.90;;;;;;4770841;30;20151;-83
2022/01/19 06:39:57;;;;;;;40.20;27.42;;;4.70;99.90;;;;;;4755672;30;20531;-85
2022/01/19 06:42:23;;;;;;;47.10;27.23;;;4.70;99.90;;;;;;4771230;30;20086;-83
2022/01/19 06:44:48;;;;;;;47.63;27.23;;;4.80;99.90;;;;;;4755532;30;20148;-83
2022/01/19 06:47:14;;;;;;;45.25;27.20;;;4.80;99.90;;;;;;4771453;30;20103;-83
2022/01/19 06:49:39;;;;;;;43.20;26.65;;;4.70;99.90;;;;;;4772231;30;20055;-82
2022/01/19 06:52:05;;;;;;;52.33;28.02;;;4.70;99.90;;;;;;4771627;30;20048;-83
2022/01/19 06:54:31;;;;;;;46.65;27.67;;;4.80;99.90;;;;;;4772280;30;20047;-84
2022/01/19 06:56:56;;;;;;;49.90;26.88;;;4.80;99.90;;;;;;4772010;30;20178;-82
2022/01/19 06:59:22;;;;;;;47.05;27.25;;;4.80;99.90;;;;;;4770828;30;20131;-83
2022/01/19 07:01:50;;;;;;;44.50;27.10;;;4.80;99.90;;;;;;4770985;30;20055;-88
2022/01/19 07:04:17;;;;;;;51.03;28.05;;;4.90;99.90;;;;;;4771306;30;20101;-83
2022/01/19 07:06:42;;;;;;;50.13;27.88;;;4.90;99.90;;;;;;4771594;30;20064;-83
2022/01/19 07:09:09;;;;;;;46.50;28.33;;;4.90;99.90;;;;;;4770625;30;20064;-83
2022/01/19 07:11:37;;;;;;;52.63;28.52;;;4.90;99.90;;;;;;4770262;30;20051;-83
2022/01/19 07:14:04;;;;;;;49.70;27.50;;;4.90;99.90;;;;;;4770903;30;20487;-83
2022/01/19 07:16:29;;;;;;;52.53;28.08;;;5.00;99.90;;;;;;4771469;30;20143;-83
2022/01/19 07:18:55;;;;;;;55.55;28.00;;;4.90;99.90;;;;;;4771591;30;20083;-83
2022/01/19 07:21:21;;;;;;;44.92;27.45;;;4.90;99.90;;;;;;4770023;30;20063;-83
2022/01/19 07:23:46;;;;;;;56.13;28.58;;;5.00;99.90;;;;;;4771685;30;20400;-83
2022/01/19 07:26:12;;;;;;;48.38;27.90;;;4.90;99.90;;;;;;4740586;30;20106;-83
2022/01/19 07:28:38;;;;;;;48.47;28.58;;;5.00;99.90;;;;;;4771567;30;20135;-83
2022/01/19 07:31:03;;;;;;;51.03;29.15;;;5.10;99.90;;;;;;4770642;30;20055;-83
2022/01/19 07:33:29;;;;;;;45.47;28.23;;;5.00;99.90;;;;;;4771018;30;20060;-83
2022/01/19 07:35:55;;;;;;;48.33;28.90;;;5.00;99.90;;;;;;4770534;30;20403;-83
2022/01/19 07:38:22;;;;;;;48.78;29.13;;;5.00;99.90;;;;;;4771060;30;20051;-82
2022/01/19 07:40:48;;;;;;;49.88;28.80;;;5.00;99.90;;;;;;4771308;30;20113;-83
2022/01/19 07:43:14;;;;;;;46.35;29.02;;;5.00;99.90;;;;;;4770126;30;20048;-82
2022/01/19 07:45:39;;;;;;;51.63;29.73;;;5.00;99.90;;;;;;4755575;30;20571;-83
2022/01/19 07:48:05;;;;;;;47.30;28.95;;;5.00;99.90;;;;;;4771280;30;20059;-82
2022/01/19 07:50:31;;;;;;;50.80;30.27;;;5.00;99.90;;;;;;4754844;30;20071;-83
2022/01/19 07:52:58;;;;;;;52.97;30.42;;;5.00;99.90;;;;;;4771007;30;20048;-83
2022/01/19 07:55:24;;;;;;;48.67;29.48;;;5.00;99.90;;;;;;4769509;30;20063;-83
2022/01/19 07:57:51;;;;;;;53.83;29.58;;;5.00;99.90;;;;;;4769975;30;20377;-82
2022/01/19 08:00:17;;;;;;;55.83;30.15;;;5.10;99.90;;;;;;4770608;30;20062;-83
2022/01/19 08:02:44;;;;;;;54.63;30.13;;;5.00;99.90;;;;;;4771039;30;20186;-82
2022/01/19 08:05:10;;;;;;;52.97;29.63;;;5.10;99.90;;;;;;4770805;30;20087;-83
2022/01/19 08:07:35;;;;;;;52.65;30.52;;;5.00;99.90;;;;;;4770039;30;20572;-83
2022/01/19 08:10:05;;;;;;;56.25;29.70;;;5.00;99.90;;;;;;4770791;30;20052;-83
2022/01/19 08:12:30;;;;;;;46.97;30.33;;;5.00;99.90;;;;;;4754509;30;20892;-83
2022/01/19 08:14:58;;;;;;;56.10;29.42;;;5.00;99.90;;;;;;4771024;30;20056;-83
2022/01/19 08:17:26;;;;;;;56.75;30.33;;;5.00;99.90;;;;;;4770324;30;20093;-83
2022/01/19 08:19:52;;;;;;;49.25;28.70;;;5.00;99.90;;;;;;4769588;30;20054;-83
2022/01/19 08:22:18;;;;;;;51.25;28.80;;;5.00;99.90;;;;;;4769333;30;20063;-83
2022/01/19 08:24:44;;;;;;;55.53;30.00;;;5.00;99.90;;;;;;4770390;30;20055;-82
2022/01/19 08:27:09;;;;;;;56.08;30.20;;;4.90;99.90;;;;;;4754865;30;20066;-83
2022/01/19 08:29:35;;;;;;;56.95;31.40;;;5.00;99.90;;;;;;4769020;30;20491;-83
2022/01/19 08:32:00;;;;;;;54.33;30.80;;;5.00;99.90;;;;;;4770501;30;20479;-82
2022/01/19 08:34:26;;;;;;;58.67;30.60;;;5.00;99.90;;;;;;4770018;30;20578;-83
2022/01/19 08:36:52;;;;;;;54.20;31.50;;;5.00;99.90;;;;;;4769154;30;20532;-83
2022/01/19 08:39:18;;;;;;;55.90;31.90;;;5.10;99.90;;;;;;4768718;30;20095;-83
2022/01/19 08:41:44;;;;;;;57.35;32.13;;;5.00;99.90;;;;;;4770330;30;20101;-82
2022/01/19 08:44:10;;;;;;;51.90;31.17;;;5.00;99.90;;;;;;4770025;30;20476;-82
2022/01/19 08:46:38;;;;;;;57.53;32.03;;;5.00;99.90;;;;;;4769919;30;20137;-83
2022/01/19 08:49:03;;;;;;;60.67;32.47;;;5.10;99.90;;;;;;4770267;30;20074;-83
2022/01/19 08:51:29;;;;;;;53.88;30.85;;;5.10;99.90;;;;;;4769757;30;20071;-83
2022/01/19 08:53:55;;;;;;;56.97;31.63;;;5.10;99.90;;;;;;4769298;30;20052;-83
2022/01/19 08:56:20;;;;;;;59.90;32.60;;;5.10;99.90;;;;;;4768633;30;20055;-83
2022/01/19 08:58:46;;;;;;;59.47;32.22;;;5.20;99.90;;;;;;4769184;30;20048;-82
2022/01/19 09:01:12;;;;;;;63.55;31.63;;;5.20;99.90;;;;;;4768922;30;20047;-82
2022/01/19 09:03:37;;;;;;;55.10;33.08;;;5.20;99.90;;;;;;4768281;30;20070;-82
2022/01/19 09:06:03;;;;;;;55.35;32.20;;;5.30;99.90;;;;;;4769033;30;20060;-83
2022/01/19 09:08:30;;;;;;;60.85;33.60;;;5.30;99.90;;;;;;4739112;30;20091;-83
2022/01/19 09:10:58;;;;;;;57.95;33.28;;;5.30;99.90;;;;;;4769937;30;20063;-83
2022/01/19 09:13:25;;;;;;;57.63;32.28;;;5.30;99.90;;;;;;4768165;30;20055;-83
2022/01/19 09:15:50;;;;;;;59.35;31.98;;;5.40;99.90;;;;;;4769850;30;20056;-83
2022/01/19 09:18:16;;;;;;;55.47;30.40;;;5.40;99.90;;;;;;4768705;30;20059;-83
2022/01/19 09:20:41;;;;;;;57.78;31.98;;;5.40;99.90;;;;;;4768228;30;20059;-83
2022/01/19 09:23:07;;;;;;;53.67;32.05;;;5.40;99.90;;;;;;4753792;30;20415;-82
2022/01/19 09:25:33;;;;;;;60.47;32.17;;;5.40;99.90;;;;;;4769277;30;20051;-83
2022/01/19 09:27:59;;;;;;;58.95;33.03;;;5.40;99.90;;;;;;4769735;30;20476;-83
2022/01/19 09:30:25;;;;;;;52.17;30.98;;;5.40;99.90;;;;;;4768122;30;20134;-83
2022/01/19 09:33:05;;;;;;;60.25;32.17;;;5.40;99.90;;;;;;4768633;30;20471;-83
2022/01/19 09:35:39;;;;;;;54.55;32.22;;;5.40;99.90;;;;;;4755337;30;20131;-83
2022/01/19 09:38:05;;;;;;;56.78;31.85;;;5.60;99.90;;;;;;4769672;30;20410;-83
2022/01/19 09:40:30;;;;;;;57.97;30.85;;;5.50;99.90;;;;;;4768195;30;20052;-83
2022/01/19 09:42:56;;;;;;;50.92;31.50;;;5.60;99.90;;;;;;4768609;30;20091;-83
2022/01/19 09:45:22;;;;;;;64.47;33.30;;;5.60;99.90;;;;;;4767827;30;20070;-82
2022/01/19 09:47:47;;;;;;;51.67;32.35;;;5.70;99.90;;;;;;4769073;30;20052;-83
2022/01/19 09:50:13;;;;;;;56.08;31.85;;;5.70;99.90;;;;;;4769830;30;20055;-83
2022/01/19 09:52:39;;;;;;;53.60;32.92;;;5.60;99.90;;;;;;4768904;30;20044;-83
2022/01/19 09:55:06;;;;;;;52.00;31.15;;;5.70;99.90;;;;;;4753779;30;20511;-83
2022/01/19 09:57:35;;;;;;;51.00;31.35;;;5.70;99.90;;;;;;4767834;30;20136;-83
2022/01/19 10:00:01;;;;;;;50.85;31.85;;;5.70;99.90;;;;;;4768555;30;20048;-84
2022/01/19 10:02:26;;;;;;;55.30;32.35;;;5.70;99.90;;;;;;4768368;30;20483;-83
2022/01/19 10:04:52;;;;;;;58.95;32.70;;;5.80;99.90;;;;;;4768399;30;20058;-83
2022/01/19 10:07:23;;;;;;;49.70;30.65;;;5.80;99.90;;;;;;4786720;30;20051;-83
2022/01/19 10:09:48;;;;;;;;;;;5.80;99.90;;;;;;4772790;30;20410;-83
2022/01/19 10:17:55;;;;;;;49.33;32.25;;;5.80;99.90;;;;;;4771404;30;20060;-84
2022/01/19 10:20:22;;;;;;;51.13;30.83;;;5.80;99.90;;;;;;4757034;30;20086;-84
2022/01/19 10:22:47;;;;;;;51.20;31.92;;;5.70;99.90;;;;;;4771137;30;20052;-83
2022/01/19 10:25:13;;;;;;;51.25;32.45;;;5.70;99.90;;;;;;4771733;30;20066;-83
2022/01/19 10:27:42;;;;;;;55.05;32.28;;;5.70;99.90;;;;;;4756191;30;20403;-83
2022/01/19 10:30:08;;;;;;;52.80;33.15;;;5.70;99.90;;;;;;4771489;30;20048;-83
2022/01/19 10:32:36;;;;;;;45.17;30.73;;;5.70;99.90;;;;;;4771788;30;20425;-84
2022/01/19 10:35:24;;;;;;;54.45;33.35;;;5.70;99.90;;;;;;4772512;30;20143;-83
2022/01/19 10:38:09;;;;;;;57.53;31.98;;;5.70;99.90;;;;;;4771144;30;20138;-83
2022/01/19 10:40:35;;;;;;;52.90;32.85;;;5.70;99.90;;;;;;4770858;30;20062;-84
2022/01/19 10:43:28;;;;;;;49.00;31.98;;;5.60;99.90;;;;;;4771177;30;20048;-83
2022/01/19 10:45:54;;;;;;;51.40;32.53;;;5.70;99.90;;;;;;4771915;30;20063;-83
2022/01/19 10:48:39;;;;;;;55.78;33.10;;;5.70;99.90;;;;;;4771045;30;20048;-84
2022/01/19 10:51:27;;;;;;;63.78;34.33;;;5.60;99.90;;;;;;4772214;30;20051;-83
2022/01/19 10:54:07;;;;;;;54.03;33.50;;;5.80;99.90;;;;;;4771559;30;20116;-84
2022/01/19 10:56:33;;;;;;;57.25;33.00;;;5.70;99.90;;;;;;4771197;30;20451;-83
2022/01/19 10:59:01;;;;;;;53.75;33.55;;;5.70;99.90;;;;;;4756043;30;20059;-83
2022/01/19 11:01:52;;;;;;;56.72;34.28;;;5.70;99.90;;;;;;4771042;30;20067;-84
2022/01/19 11:04:31;;;;;;;51.45;32.42;;;5.80;99.90;;;;;;4773042;30;20407;-82
2022/01/19 11:07:03;;;;;;;53.83;35.03;;;5.70;99.90;;;;;;4756579;30;20656;-84
2022/01/19 11:09:30;;;;;;;59.90;35.70;;;5.80;99.90;;;;;;4770678;30;20067;-83
2022/01/19 11:11:58;;;;;;;53.95;35.00;;;5.80;99.90;;;;;;4771354;30;20059;-83
2022/01/19 11:14:25;;;;;;;60.25;36.40;;;5.90;99.90;;;;;;4770546;30;20097;-84
2022/01/19 11:16:51;;;;;;;61.50;36.47;;;5.90;99.90;;;;;;4770581;30;20056;-84
2022/01/19 11:19:18;;;;;;;60.00;35.63;;;5.90;99.90;;;;;;4771595;30;20059;-83
2022/01/19 11:22:03;;;;;;;54.50;35.28;;;6.00;99.90;;;;;;4770060;30;20059;-84
2022/01/19 11:24:31;;;;;;;61.17;35.80;;;6.00;99.90;;;;;;4771593;30;20058;-83
2022/01/19 11:26:57;;;;;;;52.40;34.97;;;6.00;99.90;;;;;;4755551;30;20423;-84
2022/01/19 11:29:23;;;;;;;58.63;37.20;;;5.90;99.90;;;;;;4755512;30;20056;-84
2022/01/19 11:31:53;;;;;;;57.35;35.40;;;6.00;99.90;;;;;;4769968;30;20066;-84
2022/01/19 11:34:39;;;;;;;58.15;36.85;;;6.10;99.90;;;;;;4755660;30;20086;-84
2022/01/19 11:37:05;;;;;;;60.72;35.83;;;6.10;99.90;;;;;;4771351;30;20052;-84
2022/01/19 11:39:31;;;;;;;63.60;37.35;;;6.10;99.90;;;;;;4755494;30;20056;-83
2022/01/19 11:41:57;;;;;;;61.65;36.17;;;6.10;99.90;;;;;;4769789;30;20109;-84
2022/01/19 11:44:29;;;;;;;60.72;35.67;;;6.10;99.90;;;;;;4755260;30;20063;-83
2022/01/19 11:46:57;;;;;;;60.70;36.38;;;6.20;99.90;;;;;;4770923;30;20122;-84
2022/01/19 11:49:46;;;;;;;64.07;37.10;;;6.30;99.90;;;;;;4755708;30;20109;-84
2022/01/19 11:52:12;;;;;;;61.47;35.35;;;6.30;99.90;;;;;;4770110;30;20055;-84
2022/01/19 11:54:37;;;;;;;61.95;35.70;;;6.30;99.90;;;;;;4755395;30;20391;-83
2022/01/19 11:57:06;;;;;;;59.53;35.70;;;6.40;99.90;;;;;;4770710;30;20066;-84
2022/01/19 11:59:43;;;;;;;58.42;36.50;;;6.50;99.90;;;;;;4740395;30;20079;-83
2022/01/19 12:02:21;;;;;;;60.40;35.30;;;6.50;99.90;;;;;;4771141;30;20055;-84
2022/01/19 12:04:59;;;;;;;57.45;34.45;;;6.50;99.90;;;;;;4770533;30;20051;-83
2022/01/19 12:07:42;;;;;;;60.03;36.30;;;6.50;99.90;;;;;;4770180;30;20189;-83
2022/01/19 12:10:20;;;;;;;60.08;36.08;;;6.50;99.90;;;;;;4770450;30;20453;-84
2022/01/19 12:13:09;;;;;;;64.22;37.67;;;6.50;99.90;;;;;;4754664;30;20594;-84
2022/01/19 12:15:55;;;;;;;62.42;36.65;;;6.50;99.90;;;;;;4757761;30;20530;-84
2022/01/19 12:18:39;;;;;;;61.35;36.28;;;6.50;99.90;;;;;;4755743;30;20055;-84
2022/01/19 12:21:05;;;;;;;57.65;35.63;;;6.50;99.90;;;;;;4770357;30;20060;-84
2022/01/19 12:23:32;;;;;;;59.08;37.42;;;6.40;99.90;;;;;;4754747;30;20047;-83
2022/01/19 12:26:00;;;;;;;63.17;36.90;;;6.40;99.90;;;;;;4769351;30;20059;-84
2022/01/19 12:28:45;;;;;;;60.78;37.17;;;6.40;99.90;;;;;;4754526;30;20058;-84
2022/01/19 12:31:29;;;;;;;64.22;35.53;;;6.40;99.90;;;;;;4770190;30;20056;-84
2022/01/19 12:34:04;;;;;;;62.40;35.95;;;6.30;99.90;;;;;;4769997;30;20083;-84
2022/01/19 12:36:52;;;;;;;59.53;36.83;;;6.30;99.90;;;;;;4769527;30;20047;-84
2022/01/19 12:39:28;;;;;;;61.15;35.20;;;6.30;99.90;;;;;;4770387;30;20055;-84
2022/01/19 12:42:00;;;;;;;63.78;35.55;;;6.30;99.90;;;;;;4769005;30;20066;-84
2022/01/19 12:44:35;;;;;;;62.08;35.97;;;6.30;99.90;;;;;;4768984;30;20063;-83
2022/01/19 12:47:02;;;;;;;58.15;35.17;;;6.40;99.90;;;;;;4769612;30;20055;-84
2022/01/19 12:49:29;;;;;;;60.38;34.22;;;6.30;99.90;;;;;;4769258;30;20052;-84
2022/01/19 12:51:54;;;;;;;60.80;34.83;;;6.30;99.90;;;;;;4753879;30;20060;-84
2022/01/19 12:54:28;;;;;;;60.90;35.10;;;6.40;99.90;;;;;;4770038;30;20052;-84
2022/01/19 12:56:58;;;;;;;55.78;34.22;;;6.30;99.90;;;;;;4769810;30;20063;-84
2022/01/19 12:59:24;;;;;;;59.33;34.20;;;6.30;99.90;;;;;;4769125;30;20138;-84
2022/01/19 13:01:50;;;;;;;57.63;36.08;;;6.40;99.90;;;;;;4769013;30;20087;-84
2022/01/19 13:04:26;;;;;;;58.10;34.38;;;6.50;99.90;;;;;;4769605;30;20047;-84
2022/01/19 13:06:55;;;;;;;58.75;34.45;;;6.60;99.90;;;;;;4768624;30;20156;-84
2022/01/19 13:09:29;;;;;;;56.28;34.47;;;6.60;99.90;;;;;;4769939;30;20052;-84
2022/01/19 13:11:56;;;;;;;52.67;34.00;;;6.70;99.90;;;;;;4768129;30;20056;-85
2022/01/19 13:14:23;;;;;;;59.47;33.85;;;6.70;99.90;;;;;;4769726;30;20066;-84
2022/01/19 13:16:51;;;;;;;55.83;33.13;;;6.80;99.90;;;;;;4769892;30;20120;-84
2022/01/19 13:19:18;;;;;;;58.85;34.35;;;6.70;99.90;;;;;;4753347;30;20507;-84
2022/01/19 13:21:47;;;;;;;57.00;34.22;;;6.70;99.90;;;;;;4769601;30;20052;-84
2022/01/19 13:24:22;;;;;;;53.63;33.13;;;6.70;99.90;;;;;;4768046;30;20133;-84
2022/01/19 13:27:05;;;;;;;57.78;34.28;;;6.60;99.90;;;;;;4755052;30;20056;-84
2022/01/19 13:29:34;;;;;;;56.53;34.47;;;6.60;99.90;;;;;;4768336;30;20522;-84
2022/01/19 13:32:04;;;;;;;59.33;33.97;;;6.60;99.90;;;;;;4769153;30;20405;-84
2022/01/19 13:34:32;;;;;;;60.35;34.45;;;6.60;99.90;;;;;;4768672;30;20062;-84
2022/01/19 13:37:02;;;;;;;55.55;34.42;;;6.60;99.90;;;;;;4753708;30;20055;-85
2022/01/19 13:39:30;;;;;;;57.08;32.97;;;6.60;99.90;;;;;;4768602;30;20063;-84
2022/01/19 13:41:58;;;;;;;60.20;35.45;;;6.50;99.90;;;;;;4775079;30;20059;-84
2022/01/19 13:44:25;;;;;;;57.85;33.55;;;6.50;99.90;;;;;;4775213;30;20071;-83
2022/01/19 13:47:02;;;;;;;58.17;34.25;;;6.50;99.90;;;;;;4759864;30;20062;-83
2022/01/19 13:49:28;;;;;;;54.33;33.53;;;6.50;99.90;;;;;;4761096;30;20108;-83
2022/01/19 13:51:53;;;;;;;56.45;33.50;;;6.50;99.90;;;;;;4775393;30;20056;-83
2022/01/19 13:54:19;;;;;;;54.67;32.72;;;6.50;99.90;;;;;;4773840;30;20097;-83
2022/01/19 13:56:44;;;;;;;59.70;32.42;;;6.50;99.90;;;;;;4759715;30;20108;-83
2022/01/19 13:59:17;;;;;;;50.50;30.95;;;6.50;99.90;;;;;;4773914;30;20056;-83
2022/01/19 14:01:49;;;;;;;55.25;31.90;;;6.50;99.90;;;;;;4774559;30;20060;-83
2022/01/19 14:04:15;;;;;;;52.97;29.23;;;6.40;99.90;;;;;;4774951;30;20059;-83
2022/01/19 14:06:42;;;;;;;48.42;29.15;;;6.50;99.90;;;;;;4774304;30;20064;-83
2022/01/19 14:09:11;;;;;;;49.13;27.63;;;6.40;99.90;;;;;;4773812;30;20055;-83